createdAt,value
2023-03-10T00:00:34.213Z,7.30
2023-03-10T00:02:39.199Z,8.80
2023-03-10T00:04:49.093Z,7.78
2023-03-10T00:06:54.037Z,9.48
2023-03-10T00:08:59.694Z,8.85
2023-03-10T00:11:04.713Z,9.10
2023-03-10T00:13:09.903Z,7.00
2023-03-10T00:15:16.914Z,8.13
2023-03-10T00:17:24.159Z,9.15
2023-03-10T00:19:29.536Z,8.43
2023-03-10T00:21:37.700Z,6.75
2023-03-10T00:23:42.621Z,9.40
2023-03-10T00:25:47.967Z,11.73
2023-03-10T00:27:52.935Z,7.72
2023-03-10T00:32:07.372Z,8.75
2023-03-10T00:34:15.145Z,7.15
2023-03-10T00:36:23.682Z,7.78
2023-03-10T00:38:34.051Z,8.30
2023-03-10T00:40:41.020Z,9.73
2023-03-10T00:42:46.715Z,7.07
2023-03-10T00:44:52.139Z,8.10
2023-03-10T00:46:57.241Z,8.63
2023-03-10T00:49:02.268Z,8.75
2023-03-10T00:51:09.146Z,8.95
2023-03-10T00:53:14.099Z,6.47
2023-03-10T00:55:21.785Z,6.03
2023-03-10T00:59:44.118Z,7.18
2023-03-10T01:01:55.580Z,8.05
2023-03-10T01:04:04.402Z,5.53
2023-03-10T01:06:10.395Z,5.35
2023-03-10T01:08:15.909Z,5.35
2023-03-10T01:10:24.201Z,8.65
2023-03-10T01:12:29.215Z,7.13
2023-03-10T01:14:35.221Z,6.40
2023-03-10T01:16:40.453Z,8.38
2023-03-10T01:18:46.248Z,2.75
2023-03-10T01:20:54.034Z,5.00
2023-03-10T01:22:59.723Z,4.80
2023-03-10T01:25:05.303Z,7.88
2023-03-10T01:27:12.944Z,5.65
2023-03-10T01:31:25.381Z,7.20
2023-03-10T01:33:30.747Z,5.35
2023-03-10T01:35:38.260Z,2.95
2023-03-10T01:37:44.531Z,6.57
2023-03-10T01:39:49.883Z,3.95
2023-03-10T01:41:56.009Z,6.63
2023-03-10T01:44:04.989Z,2.65
2023-03-10T01:46:50.903Z,3.65
2023-03-10T01:49:41.253Z,4.25
2023-03-10T01:51:53.851Z,3.42
2023-03-10T01:54:00.234Z,2.55
2023-03-10T01:56:11.170Z,3.72
2023-03-10T01:58:18.563Z,2.45
2023-03-10T02:00:29.953Z,5.87
2023-03-10T02:02:37.966Z,3.10
2023-03-10T02:04:48.633Z,2.78
2023-03-10T02:07:00.426Z,5.50
2023-03-10T02:09:08.669Z,4.73
2023-03-10T02:11:16.476Z,4.45
2023-03-10T02:13:21.833Z,3.05
2023-03-10T02:15:32.216Z,3.35
2023-03-10T02:17:37.794Z,5.13
2023-03-10T02:20:08.625Z,3.90
2023-03-10T02:22:15.974Z,2.80
2023-03-10T02:24:29.714Z,1.75
2023-03-10T02:26:49.140Z,3.40
2023-03-10T02:29:01.722Z,2.75
2023-03-10T02:31:07.894Z,3.53
2023-03-10T02:33:17.511Z,3.35
2023-03-10T02:35:28.521Z,3.40
2023-03-10T02:37:40.963Z,2.20
2023-03-10T02:39:46.788Z,3.45
2023-03-10T02:41:53.118Z,4.75
2023-03-10T02:46:11.360Z,3.00
2023-03-10T02:48:32.372Z,4.40
2023-03-10T02:50:42.368Z,4.40
2023-03-10T02:52:52.756Z,3.95
2023-03-10T02:55:00.115Z,2.22
2023-03-10T02:57:08.403Z,2.88
2023-03-10T02:59:16.793Z,2.20
2023-03-10T03:01:27.103Z,3.17
2023-03-10T03:03:35.627Z,1.65
2023-03-10T03:05:44.408Z,3.78
2023-03-10T03:07:49.786Z,4.25
2023-03-10T03:09:54.768Z,4.35
2023-03-10T03:12:04.995Z,1.70
2023-03-10T03:14:10.032Z,2.72
2023-03-10T03:16:30.965Z,1.70
2023-03-10T03:18:41.181Z,4.85
2023-03-10T03:22:59.249Z,2.85
2023-03-10T03:25:04.724Z,8.00
2023-03-10T03:27:10.472Z,3.35
2023-03-10T03:29:17.661Z,2.33
2023-03-10T03:31:29.399Z,3.40
2023-03-10T03:33:43.987Z,3.28
2023-03-10T03:35:49.711Z,2.67
2023-03-10T03:37:58.339Z,3.35
2023-03-10T03:40:07.279Z,3.25
2023-03-10T03:42:17.002Z,2.85
2023-03-10T03:44:31.370Z,3.83
2023-03-10T03:46:44.251Z,3.25
2023-03-10T03:48:49.261Z,1.95
2023-03-10T03:50:54.328Z,2.78
2023-03-10T03:53:08.820Z,2.97
2023-03-10T03:55:16.874Z,3.30
2023-03-10T03:57:23.625Z,2.85
2023-03-10T03:59:31.285Z,1.95
2023-03-10T04:01:39.077Z,2.60
2023-03-10T04:03:50.268Z,3.15
2023-03-10T04:05:57.645Z,2.15
2023-03-10T04:08:05.045Z,3.42
2023-03-10T04:10:12.935Z,1.42
2023-03-10T04:12:18.291Z,2.40
2023-03-10T04:14:29.501Z,2.67
2023-03-10T04:16:37.070Z,3.53
2023-03-10T04:18:46.193Z,1.65
2023-03-10T04:20:55.772Z,1.77
2023-03-10T04:23:02.401Z,3.35
2023-03-10T04:25:12.662Z,1.05
2023-03-10T04:27:21.077Z,0.95
2023-03-10T04:29:27.594Z,1.00
2023-03-10T04:33:41.256Z,3.30
2023-03-10T04:35:51.630Z,2.33
2023-03-10T04:37:59.562Z,1.42
2023-03-10T04:40:09.540Z,1.98
2023-03-10T04:42:14.726Z,4.13
2023-03-10T04:44:30.454Z,5.10
2023-03-10T04:46:41.980Z,4.32
2023-03-10T04:48:48.222Z,0.70
2023-03-10T04:51:02.374Z,2.80
2023-03-10T04:53:12.383Z,3.92
2023-03-10T04:55:17.359Z,3.63
2023-03-10T04:57:25.045Z,3.60
2023-03-10T04:59:31.464Z,2.85
2023-03-10T05:01:36.736Z,3.05
2023-03-10T05:03:46.765Z,2.22
2023-03-10T05:05:54.177Z,2.17
2023-03-10T05:08:02.405Z,3.33
2023-03-10T05:10:12.800Z,3.20
2023-03-10T05:12:18.034Z,7.00
2023-03-10T05:14:24.178Z,2.72
2023-03-10T05:16:31.031Z,2.47
2023-03-10T05:18:36.694Z,3.63
2023-03-10T05:20:43.196Z,1.77
2023-03-10T05:22:51.303Z,3.30
2023-03-10T05:25:00.214Z,2.55
2023-03-10T05:27:05.266Z,1.77
2023-03-10T05:29:11.323Z,3.42
2023-03-10T05:31:26.397Z,4.82
2023-03-10T05:33:39.990Z,2.83
2023-03-10T05:35:45.033Z,3.05
2023-03-10T05:37:56.304Z,4.65
2023-03-10T05:40:05.099Z,1.88
2023-03-10T05:42:12.305Z,4.07
2023-03-10T05:44:20.927Z,5.05
2023-03-10T05:46:29.208Z,3.20
2023-03-10T05:48:37.555Z,4.20
2023-03-10T05:50:43.243Z,4.47
2023-03-10T05:52:49.342Z,1.63
2023-03-10T05:54:57.908Z,3.78
2023-03-10T05:57:05.492Z,3.55
2023-03-10T05:59:11.030Z,6.03
2023-03-10T06:01:17.345Z,1.73
2023-03-10T06:03:23.796Z,3.42
2023-03-10T06:05:29.063Z,3.10
2023-03-10T06:07:36.569Z,5.72
2023-03-10T06:09:42.232Z,2.92
2023-03-10T06:11:49.829Z,4.57
2023-03-10T06:16:04.723Z,3.10
2023-03-10T06:18:09.692Z,2.78
2023-03-10T06:20:17.144Z,4.60
2023-03-10T06:22:22.477Z,3.85
2023-03-10T06:24:27.795Z,6.47
2023-03-10T06:26:32.821Z,3.63
2023-03-10T06:28:41.137Z,4.90
2023-03-10T06:30:57.568Z,4.00
2023-03-10T06:33:03.277Z,4.72
2023-03-10T06:35:13.561Z,5.20
2023-03-10T06:37:18.973Z,4.60
2023-03-10T06:39:27.669Z,4.75
2023-03-10T06:41:32.868Z,3.63
2023-03-10T06:43:40.627Z,5.00
2023-03-10T06:45:51.738Z,6.68
2023-03-10T06:47:56.771Z,4.70
2023-03-10T06:50:06.058Z,6.05
2023-03-10T06:52:11.037Z,6.68
2023-03-10T06:54:16.217Z,6.35
2023-03-10T06:56:24.085Z,3.03
2023-03-10T07:00:34.260Z,7.22
2023-03-10T07:02:41.774Z,3.17
2023-03-10T07:04:47.025Z,5.28
2023-03-10T07:06:54.144Z,2.65
2023-03-10T07:08:59.534Z,3.28
2023-03-10T07:11:04.745Z,6.65
2023-03-10T07:13:10.811Z,10.32
2023-03-10T07:15:17.376Z,2.20
2023-03-10T07:17:22.336Z,5.22
2023-03-10T07:19:29.918Z,5.15
2023-03-10T07:21:35.039Z,5.18
2023-03-10T07:23:40.454Z,7.28
2023-03-10T07:25:46.865Z,4.50
2023-03-10T07:27:52.259Z,5.10
2023-03-10T07:29:57.345Z,5.63
2023-03-10T07:32:06.911Z,5.45
2023-03-10T07:34:11.840Z,5.72
2023-03-10T07:36:22.575Z,3.47
2023-03-10T07:38:27.557Z,5.40
2023-03-10T07:40:36.625Z,6.97
2023-03-10T07:42:42.128Z,3.88
2023-03-10T07:44:47.733Z,2.60
2023-03-10T07:46:52.799Z,7.13
2023-03-10T07:49:00.444Z,7.50
2023-03-10T07:51:08.171Z,3.70
2023-03-10T07:53:15.945Z,3.83
2023-03-10T07:57:30.995Z,4.53
2023-03-10T07:59:39.021Z,8.60
2023-03-10T08:01:44.293Z,4.15
2023-03-10T08:03:49.990Z,8.20
2023-03-10T08:05:56.373Z,10.98
2023-03-10T08:08:01.691Z,5.20
2023-03-10T08:10:11.751Z,5.90
2023-03-10T08:12:16.821Z,6.13
2023-03-10T08:14:24.128Z,7.88
2023-03-10T08:16:31.037Z,5.00
2023-03-10T08:18:36.728Z,3.35
2023-03-10T08:20:51.990Z,3.70
2023-03-10T08:22:56.927Z,4.35
2023-03-10T08:25:02.244Z,3.20
2023-03-10T08:27:10.240Z,3.90
2023-03-10T08:29:15.288Z,5.85
2023-03-10T08:31:23.791Z,6.45
2023-03-10T08:33:30.805Z,7.28
2023-03-10T08:35:36.205Z,9.85
2023-03-10T08:37:43.357Z,5.00
2023-03-10T08:39:50.116Z,6.25
2023-03-10T08:41:56.490Z,1.67
2023-03-10T08:44:04.502Z,3.50
2023-03-10T08:46:10.005Z,5.43
2023-03-10T08:48:15.057Z,3.78
2023-03-10T08:50:23.985Z,4.28
2023-03-10T08:52:29.939Z,5.45
2023-03-10T08:54:34.854Z,4.80
2023-03-10T08:56:40.353Z,5.53
2023-03-10T08:58:48.060Z,8.10
2023-03-10T09:00:57.519Z,4.03
2023-03-10T09:03:02.507Z,3.75
2023-03-10T09:05:10.609Z,5.35
2023-03-10T09:07:15.598Z,7.55
2023-03-10T09:09:25.110Z,6.88
2023-03-10T09:11:32.786Z,8.55
2023-03-10T09:13:38.220Z,6.50
2023-03-10T09:15:43.701Z,7.65
2023-03-10T09:17:51.250Z,7.85
2023-03-10T09:19:56.567Z,7.25
2023-03-10T09:22:01.598Z,4.30
2023-03-10T09:24:07.143Z,6.05
2023-03-10T09:26:12.222Z,8.23
2023-03-10T09:28:18.830Z,6.53
2023-03-10T09:30:24.761Z,13.45
2023-03-10T09:32:35.032Z,7.85
2023-03-10T09:34:42.602Z,8.25
2023-03-10T09:36:47.863Z,6.85
2023-03-10T09:38:52.928Z,6.20
2023-03-10T09:41:16.356Z,10.88
2023-03-10T09:43:23.684Z,6.50
2023-03-10T09:45:45.776Z,6.75
2023-03-10T09:48:28.011Z,12.32
2023-03-10T09:50:41.431Z,10.85
2023-03-10T09:52:49.900Z,10.27
2023-03-10T09:55:02.696Z,5.80
2023-03-10T09:57:23.764Z,6.15
2023-03-10T09:59:35.241Z,7.55
2023-03-10T10:01:44.839Z,12.57
2023-03-10T10:03:54.797Z,8.23
2023-03-10T10:06:03.366Z,11.30
2023-03-10T10:08:26.041Z,9.18
2023-03-10T10:10:37.929Z,6.82
2023-03-10T10:12:45.197Z,8.52
2023-03-10T10:14:57.291Z,6.38
2023-03-10T10:17:11.478Z,3.10
2023-03-10T10:19:22.946Z,2.60
2023-03-10T10:21:45.475Z,5.78
2023-03-10T10:23:54.232Z,2.95
2023-03-10T10:26:04.045Z,6.07
2023-03-10T10:28:24.444Z,3.20
2023-03-10T10:30:37.645Z,5.97
2023-03-10T10:33:01.410Z,5.35
2023-03-10T10:35:18.282Z,4.72
2023-03-10T10:37:34.013Z,8.90
2023-03-10T10:39:46.554Z,6.45
2023-03-10T10:41:52.162Z,2.97
2023-03-10T10:44:01.885Z,6.13
2023-03-10T10:46:11.263Z,3.95
2023-03-10T10:48:41.862Z,5.55
2023-03-10T10:50:57.299Z,2.95
2023-03-10T10:53:24.396Z,3.42
2023-03-10T10:55:34.933Z,4.10
2023-03-10T10:57:46.140Z,2.15
2023-03-10T10:59:51.638Z,3.63
2023-03-10T11:02:01.431Z,2.63
2023-03-10T11:04:10.696Z,3.22
2023-03-10T11:06:27.152Z,1.95
2023-03-10T11:08:40.677Z,2.30
2023-03-10T11:10:47.318Z,2.25
2023-03-10T11:13:10.491Z,3.90
2023-03-10T11:15:22.644Z,5.05
2023-03-10T11:17:35.609Z,3.45
2023-03-10T11:19:55.634Z,5.40
2023-03-10T11:22:08.894Z,3.80
2023-03-10T11:24:27.771Z,5.63
2023-03-10T11:26:49.886Z,5.82
2023-03-10T11:29:00.268Z,5.35
2023-03-10T11:31:21.836Z,5.45
2023-03-10T11:33:38.986Z,4.15
2023-03-10T11:35:49.358Z,5.53
2023-03-10T11:38:01.794Z,5.30
2023-03-10T11:40:23.720Z,5.80
2023-03-10T11:42:37.053Z,7.03
2023-03-10T11:44:50.016Z,4.68
2023-03-10T11:47:05.499Z,5.85
2023-03-10T11:49:14.937Z,2.30
2023-03-10T11:51:31.467Z,3.65
2023-03-10T11:53:44.234Z,2.33
2023-03-10T11:55:53.183Z,2.95
2023-03-10T11:58:02.575Z,2.10
2023-03-10T12:00:18.784Z,5.07
2023-03-10T12:02:29.737Z,3.45
2023-03-10T12:04:42.018Z,5.88
2023-03-10T12:06:55.377Z,3.33
2023-03-10T12:09:04.050Z,5.65
2023-03-10T12:11:22.772Z,2.22
2023-03-10T12:13:33.871Z,8.85
2023-03-10T12:15:40.518Z,6.13
2023-03-10T12:17:46.196Z,3.97
2023-03-10T12:20:28.751Z,5.75
2023-03-10T12:22:41.621Z,6.70
2023-03-10T12:24:53.043Z,3.20
2023-03-10T12:27:07.754Z,5.15
2023-03-10T12:29:39.700Z,2.90
2023-03-10T12:31:50.075Z,3.90
2023-03-10T12:33:56.251Z,2.35
2023-03-10T12:36:09.310Z,2.22
2023-03-10T12:38:43.136Z,0.95
2023-03-10T12:40:53.031Z,4.57
2023-03-10T12:43:04.423Z,3.08
2023-03-10T12:45:28.518Z,3.88
2023-03-10T12:47:48.792Z,5.25
2023-03-10T12:50:00.176Z,1.85
2023-03-10T12:52:26.465Z,2.53
2023-03-10T12:54:44.775Z,2.92
2023-03-10T13:02:26.895Z,3.15
2023-03-10T13:04:31.981Z,1.50
2023-03-10T13:06:40.598Z,3.00
2023-03-10T13:08:49.740Z,1.48
2023-03-10T13:10:57.217Z,5.13
2023-03-10T13:13:10.630Z,2.17
2023-03-10T13:15:25.794Z,2.40
2023-03-10T13:17:35.161Z,2.05
2023-03-10T13:19:41.043Z,3.08
2023-03-10T13:21:53.617Z,2.22
2023-03-10T13:23:59.265Z,2.53
2023-03-10T13:26:10.031Z,2.20
2023-03-10T13:28:17.621Z,2.00
2023-03-10T13:30:26.598Z,1.67
2023-03-10T13:32:35.221Z,1.55
2023-03-10T13:34:42.304Z,2.72
2023-03-10T13:36:47.375Z,2.22
2023-03-10T13:38:53.184Z,0.70
2023-03-10T13:41:05.696Z,1.00
2023-03-10T13:43:34.989Z,2.08
2023-03-10T13:45:40.406Z,1.17
2023-03-10T13:47:51.101Z,1.58
2023-03-10T13:50:00.336Z,2.08
2023-03-10T13:52:09.617Z,1.63
2023-03-10T13:54:22.199Z,0.75
2023-03-10T13:56:32.573Z,1.88
2023-03-10T13:58:37.648Z,3.15
2023-03-10T14:00:47.381Z,1.45
2023-03-10T14:02:56.395Z,2.15
2023-03-10T14:05:06.814Z,2.38
2023-03-10T14:07:18.395Z,1.10
2023-03-10T14:09:25.613Z,0.80
2023-03-10T14:11:41.369Z,1.15
2023-03-10T14:13:55.228Z,1.55
2023-03-10T14:16:02.401Z,1.02
2023-03-10T14:18:28.398Z,0.80
2023-03-10T14:20:35.745Z,2.58
2023-03-10T14:22:43.584Z,0.40
2023-03-10T14:29:03.641Z,2.53
2023-03-10T14:31:08.762Z,1.02
2023-03-10T14:33:17.400Z,1.52
2023-03-10T14:35:29.208Z,1.10
2023-03-10T14:37:34.082Z,0.75
2023-03-10T14:39:39.101Z,0.80
2023-03-10T14:41:44.076Z,0.50
2023-03-10T14:43:49.243Z,0.60
2023-03-10T14:45:57.795Z,0.90
2023-03-10T14:48:06.834Z,3.63
2023-03-10T14:50:17.246Z,3.25
2023-03-10T14:52:24.684Z,1.48
2023-03-10T14:54:29.905Z,0.98
2023-03-10T14:56:35.853Z,1.75
2023-03-10T14:58:49.280Z,2.22
2023-03-10T15:00:55.804Z,0.50
2023-03-10T15:03:05.335Z,0.38
2023-03-10T15:05:18.730Z,3.00
2023-03-10T15:07:26.178Z,2.30
2023-03-10T15:09:31.141Z,0.47
2023-03-10T15:11:37.749Z,1.35
2023-03-10T15:13:44.050Z,0.52
2023-03-10T15:15:50.702Z,0.20
2023-03-10T15:17:55.944Z,0.40
2023-03-10T15:20:01.906Z,1.67
2023-03-10T15:22:08.649Z,2.80
2023-03-10T15:24:16.102Z,0.73
2023-03-10T15:26:23.451Z,1.52
2023-03-10T15:28:28.383Z,2.00
2023-03-10T15:30:35.939Z,2.65
2023-03-10T15:32:40.869Z,1.38
2023-03-10T15:34:48.280Z,2.53
2023-03-10T15:36:53.410Z,1.40
2023-03-10T15:38:59.334Z,2.60
2023-03-10T15:41:09.375Z,1.50
2023-03-10T15:43:14.279Z,1.90
2023-03-10T15:45:22.529Z,1.33
2023-03-10T15:47:30.767Z,3.42
2023-03-10T15:49:40.945Z,3.10
2023-03-10T15:51:48.148Z,2.45
2023-03-10T15:53:53.654Z,2.90
2023-03-10T15:55:58.509Z,1.58
2023-03-10T15:58:05.980Z,0.30
2023-03-10T16:00:13.683Z,1.15
2023-03-10T16:02:20.452Z,1.83
2023-03-10T16:04:26.782Z,3.17
2023-03-10T16:06:32.238Z,4.78
2023-03-10T16:08:40.522Z,2.60
2023-03-10T16:12:59.700Z,0.52
2023-03-10T16:15:08.025Z,1.00
2023-03-10T16:17:14.050Z,2.63
2023-03-10T16:19:19.199Z,1.00
2023-03-10T16:21:24.482Z,0.20
2023-03-10T16:23:30.667Z,0.10
2023-03-10T16:25:35.540Z,2.05
2023-03-10T16:27:42.081Z,0.10
2023-03-10T16:29:47.182Z,0.15
2023-03-10T16:31:54.814Z,0.10
2023-03-10T16:34:00.460Z,0.70
2023-03-10T16:36:09.845Z,0.45
2023-03-10T16:38:14.735Z,0.05
2023-03-10T16:40:20.038Z,0.10
2023-03-10T16:42:26.325Z,0.20
2023-03-10T16:44:31.244Z,0.50
2023-03-10T16:46:38.159Z,0.10
2023-03-10T16:48:48.259Z,0.47
2023-03-10T16:50:53.093Z,0.10
2023-03-10T16:52:58.049Z,0.60
2023-03-10T16:55:05.448Z,0.60
2023-03-10T16:57:12.250Z,1.08
2023-03-10T16:59:19.632Z,0.20
2023-03-10T17:01:25.785Z,0.00
2023-03-10T17:03:31.165Z,0.73
2023-03-10T17:05:39.285Z,0.08
2023-03-10T17:07:54.977Z,0.40
2023-03-10T17:10:02.844Z,0.17
2023-03-10T17:12:10.036Z,0.70
2023-03-10T17:14:18.669Z,0.10
2023-03-10T17:16:28.358Z,1.40
2023-03-10T17:18:34.684Z,1.33
2023-03-10T17:20:42.233Z,2.20
2023-03-10T17:22:47.167Z,0.35
2023-03-10T17:24:55.349Z,0.47
2023-03-10T17:27:00.356Z,0.30
2023-03-10T17:29:06.533Z,0.82
2023-03-10T17:31:13.720Z,0.35
2023-03-10T17:33:18.623Z,1.25
2023-03-10T17:35:24.153Z,0.10
2023-03-10T17:37:33.250Z,0.28
2023-03-10T17:39:39.285Z,1.48
2023-03-10T17:41:44.324Z,0.43
2023-03-10T17:43:49.221Z,0.13
2023-03-10T17:45:59.318Z,0.10
2023-03-10T17:48:05.649Z,0.10
2023-03-10T17:50:12.326Z,0.80
2023-03-10T17:52:18.290Z,1.02
2023-03-10T17:54:28.209Z,0.75
2023-03-10T17:56:33.423Z,2.25
2023-03-10T17:58:38.835Z,0.60
2023-03-10T18:00:46.800Z,1.58
2023-03-10T18:02:53.676Z,0.70
2023-03-10T18:05:00.341Z,1.40
2023-03-10T18:07:05.233Z,1.92
2023-03-10T18:09:17.221Z,0.63
2023-03-10T18:11:25.919Z,0.52
2023-03-10T18:13:32.153Z,0.95
2023-03-10T18:15:40.093Z,0.60
2023-03-10T18:19:55.989Z,0.38
2023-03-10T18:22:01.197Z,0.30
2023-03-10T18:24:06.598Z,0.20
2023-03-10T18:26:13.444Z,0.30
2023-03-10T18:28:23.522Z,0.43
2023-03-10T18:30:28.482Z,0.57
2023-03-10T18:32:34.254Z,0.63
2023-03-10T18:34:39.488Z,0.63
2023-03-10T18:36:49.714Z,1.75
2023-03-10T18:38:55.756Z,0.25
2023-03-10T18:41:01.467Z,0.35
2023-03-10T18:43:06.457Z,0.60
2023-03-10T18:45:19.701Z,0.30
2023-03-10T18:47:24.811Z,0.52
2023-03-10T18:49:30.195Z,0.90
2023-03-10T18:51:39.573Z,1.13
2023-03-10T18:53:45.276Z,0.32
2023-03-10T18:55:52.834Z,0.32
2023-03-10T18:58:00.346Z,2.45
2023-03-10T19:02:19.420Z,0.95
2023-03-10T19:04:26.889Z,0.73
2023-03-10T19:06:36.763Z,0.52
2023-03-10T19:08:42.315Z,0.25
2023-03-10T19:10:48.463Z,0.40
2023-03-10T19:12:53.616Z,0.30
2023-03-10T19:14:59.427Z,3.33
2023-03-10T19:17:04.393Z,0.20
2023-03-10T19:19:20.639Z,0.30
2023-03-10T19:21:25.514Z,0.63
2023-03-10T19:23:32.302Z,0.35
2023-03-10T19:25:41.901Z,0.38
2023-03-10T19:27:49.093Z,0.20
2023-03-10T19:29:55.129Z,0.30
2023-03-10T19:31:59.999Z,0.10
2023-03-10T19:34:04.852Z,0.10
2023-03-10T19:36:16.725Z,0.50
2023-03-10T19:38:21.825Z,0.15
2023-03-10T19:40:29.435Z,0.40
2023-03-10T19:42:35.464Z,0.30
2023-03-10T19:44:41.730Z,1.40
2023-03-10T19:46:47.855Z,0.40
2023-03-10T19:48:53.124Z,0.57
2023-03-10T19:50:59.110Z,0.50
2023-03-10T19:53:06.857Z,1.33
2023-03-10T19:55:16.595Z,0.88
2023-03-10T19:57:21.625Z,1.42
2023-03-10T19:59:26.739Z,0.57
2023-03-10T20:01:34.670Z,0.63
2023-03-10T20:03:39.726Z,1.08
2023-03-10T20:05:48.593Z,0.85
2023-03-10T20:07:53.770Z,1.73
2023-03-10T20:10:03.486Z,1.00
2023-03-10T20:12:09.121Z,1.60
2023-03-10T20:14:14.497Z,1.00
2023-03-10T20:16:24.129Z,4.22
2023-03-10T20:18:29.493Z,1.98
2023-03-10T20:20:37.170Z,1.48
2023-03-10T20:22:45.415Z,2.15
2023-03-10T20:24:50.398Z,1.02
2023-03-10T20:27:00.183Z,1.50
2023-03-10T20:29:05.362Z,1.13
2023-03-10T20:31:11.543Z,1.20
2023-03-10T20:33:20.649Z,1.30
2023-03-10T20:35:28.116Z,3.05
2023-03-10T20:37:33.777Z,1.75
2023-03-10T20:39:38.909Z,0.98
2023-03-10T20:41:45.068Z,3.60
2023-03-10T20:43:53.743Z,2.15
2023-03-10T20:45:58.915Z,4.10
2023-03-10T20:48:06.773Z,3.40
2023-03-10T20:50:14.744Z,1.42
2023-03-10T20:52:20.022Z,2.42
2023-03-10T20:54:26.587Z,1.17
2023-03-10T20:56:35.686Z,1.88
2023-03-10T20:58:41.656Z,2.63
2023-03-10T21:00:51.585Z,2.60
2023-03-10T21:02:58.564Z,2.60
2023-03-10T21:05:05.912Z,3.25
2023-03-10T21:07:10.846Z,2.10
2023-03-10T21:09:17.772Z,1.40
2023-03-10T21:11:25.189Z,2.53
2023-03-10T21:13:33.365Z,1.50
2023-03-10T21:15:38.476Z,2.42
2023-03-10T21:17:46.836Z,2.30
2023-03-10T21:19:52.524Z,2.03
2023-03-10T21:21:57.886Z,1.92
2023-03-10T21:24:03.227Z,3.03
2023-03-10T21:26:17.055Z,1.98
2023-03-10T21:28:23.719Z,2.00
2023-03-10T21:30:32.091Z,3.45
2023-03-10T21:32:42.741Z,1.77
2023-03-10T21:34:50.616Z,2.10
2023-03-10T21:36:56.958Z,2.80
2023-03-10T21:39:02.939Z,4.03
2023-03-10T21:41:09.007Z,1.80
2023-03-10T21:43:16.401Z,2.88
2023-03-10T21:45:24.803Z,2.85
2023-03-10T21:47:29.651Z,3.97
2023-03-10T21:49:34.573Z,3.13
2023-03-10T21:51:47.870Z,3.65
2023-03-10T21:53:53.723Z,4.10
2023-03-10T21:56:00.639Z,3.58
2023-03-10T21:58:05.639Z,3.37
2023-03-10T22:00:16.199Z,2.83
2023-03-10T22:02:28.004Z,2.97
2023-03-10T22:04:33.002Z,4.28
2023-03-10T22:06:43.418Z,4.38
2023-03-10T22:08:48.403Z,6.15
2023-03-10T22:10:54.929Z,4.03
2023-03-10T22:13:00.505Z,3.53
2023-03-10T22:15:10.234Z,4.43
2023-03-10T22:17:17.099Z,3.80
2023-03-10T22:19:22.497Z,3.03
2023-03-10T22:21:27.332Z,3.38
2023-03-10T22:23:36.007Z,5.30
2023-03-10T22:25:44.265Z,1.60
2023-03-10T22:27:53.615Z,3.75
2023-03-10T22:29:59.640Z,2.35
2023-03-10T22:32:05.854Z,3.22
2023-03-10T22:34:13.398Z,3.47
2023-03-10T22:36:20.979Z,2.80
2023-03-10T22:38:27.401Z,3.45
2023-03-10T22:40:35.630Z,1.88
2023-03-10T22:42:45.034Z,3.83
2023-03-10T22:44:51.200Z,3.60
2023-03-10T22:46:56.506Z,5.78
2023-03-10T22:49:02.509Z,2.47
2023-03-10T22:51:13.558Z,3.47
2023-03-10T22:53:22.259Z,3.60
2023-03-10T22:55:35.059Z,3.50
2023-03-10T22:57:42.813Z,1.88
2023-03-10T22:59:50.058Z,3.25
2023-03-10T23:01:56.342Z,3.03
2023-03-10T23:04:02.943Z,3.05
2023-03-10T23:06:09.114Z,2.08
2023-03-10T23:08:16.244Z,4.97
2023-03-10T23:10:31.721Z,3.47
2023-03-10T23:12:39.364Z,2.97
2023-03-10T23:14:49.233Z,2.90
2023-03-10T23:16:54.131Z,3.25
2023-03-10T23:18:59.219Z,3.58
2023-03-10T23:21:05.732Z,3.45
2023-03-10T23:23:14.621Z,2.67
2023-03-10T23:25:26.560Z,3.70
2023-03-10T23:27:31.538Z,2.53
2023-03-10T23:29:36.671Z,4.28
2023-03-10T23:31:44.867Z,7.95
2023-03-10T23:33:49.767Z,4.30
2023-03-10T23:35:55.424Z,4.15
2023-03-10T23:38:03.244Z,3.72
2023-03-10T23:40:12.681Z,4.55
2023-03-10T23:42:17.818Z,3.45
2023-03-10T23:44:24.387Z,2.72
2023-03-10T23:46:29.495Z,2.72
2023-03-10T23:48:38.008Z,3.03
2023-03-10T23:50:48.250Z,4.00
2023-03-10T23:52:53.287Z,1.75
2023-03-10T23:54:59.729Z,2.58
2023-03-10T23:57:04.756Z,3.28
2023-03-10T23:59:09.610Z,2.78
